Havre City County Airport Havre US
ICAO: KHVR
IATA: HVR
Category: Medium
Scheduled Services: No

Elevation: 2591 ft
TransAlt. 18000 ft.

Airport Communications:
ASOS:135.225
GREAT FALLS RDO:123.65
CTAF/UNICOM:122.8

KHVR Zoom In..

If you have problems with the map follow the link
https://www.worldairports.se/pages/airport.php?
ICAO=KHVR

Runways:

(A) RW 03 length 3699 ft width 60 ft
---- / hdg 32

(B) RW 08 length 5205 ft width 100 ft
---- / hdg 77

(C) RW 21 length 3699 ft width 60 ft
---- / hdg 212

(D) RW 26 length 5205 ft width 100 ft
---- / hdg 257

Location; KHVR
Day. 07 / Time. 07.53 Zulu
* Altimeter: 29.75
* Temperature: 03° c. 37.4°f.
* Wind from: 230° Speed 13 kn.
Dewpoint: -01° c.
Visibility: 10 Statute Miles.
Clouds: Few 12000 ft.

KHVR 070753Z AUTO 23013KT 10SM FEW120 03/M01 A2975 RMK AO2 SLP093 T00331011


Wind From 230°
Speed 13 kn.

 
 
jpsmedia worldairports.se 2019   terms of use